Time;durP1;ratioP1;P1;durP2;ratioP2;P2;SDS_P1;SDS_P2;PMS_P1;PMS_P2;Temp;Humidity;BMP_temperature;BMP_pressure;BME280_temperature;BME280_humidity;BME280_pressure;Samples;Min_cycle;Max_cycle;Signal;HPM_P1;HPM_P2
2022/04/26 03:38:03;;;;;;;3.83;2.85;;;;;;;;;;5092855;28;20078;-49
2022/04/26 03:40:29;;;;;;;2.97;2.70;;;;;;;;;;5092144;28;20028;-51
2022/04/26 03:42:54;;;;;;;5.22;3.25;;;;;;;;;;5074138;28;20111;-49
2022/04/26 03:45:20;;;;;;;3.88;2.85;;;;;;;;;;5092273;28;20021;-52
2022/04/26 03:47:45;;;;;;;4.45;3.17;;;;;;;;;;5092497;28;20430;-52
2022/04/26 03:50:11;;;;;;;3.38;2.35;;;;;;;;;;5092001;28;20403;-52
2022/04/26 03:52:38;;;;;;;3.17;2.88;;;;;;;;;;5092163;28;20032;-51
2022/04/26 03:55:04;;;;;;;3.50;2.65;;;;;;;;;;5092335;28;20460;-52
2022/04/26 03:57:29;;;;;;;3.72;2.80;;;;;;;;;;5092055;28;20039;-49
2022/04/26 03:59:55;;;;;;;3.08;2.55;;;;;;;;;;5073942;28;20023;-46
2022/04/26 04:02:20;;;;;;;6.95;3.40;;;;;;;;;;5092040;28;20031;-47
2022/04/26 04:04:46;;;;;;;5.57;4.00;;;;;;;;;;5092323;28;20112;-52
2022/04/26 04:07:11;;;;;;;5.07;4.05;;;;;;;;;;5092072;28;20224;-52
2022/04/26 04:09:36;;;;;;;3.20;2.63;;;;;;;;;;5092243;28;20490;-49
2022/04/26 04:12:02;;;;;;;1.80;1.58;;;;;;;;;;5095456;28;20474;-53
2022/04/26 04:14:28;;;;;;;1.58;1.45;;;;;;;;;;5095953;28;20055;-46
2022/04/26 04:16:55;;;;;;;1.77;1.50;;;;;;;;;;5077618;28;20460;-47
2022/04/26 04:19:21;;;;;;;1.98;1.70;;;;;;;;;;5095847;28;20106;-45
2022/04/26 04:21:48;;;;;;;3.92;2.45;;;;;;;;;;5095366;28;20103;-44
2022/04/26 04:24:14;;;;;;;3.13;2.83;;;;;;;;;;5077731;28;20031;-47
2022/04/26 04:26:40;;;;;;;4.25;2.45;;;;;;;;;;5095612;28;20027;-49
2022/04/26 04:29:06;;;;;;;3.00;2.10;;;;;;;;;;5095621;28;20046;-46
2022/04/26 04:31:33;;;;;;;2.45;1.40;;;;;;;;;;5095569;28;20527;-47
2022/04/26 04:34:00;;;;;;;1.83;1.73;;;;;;;;;;5095484;28;20024;-45
2022/04/26 04:36:27;;;;;;;2.03;1.90;;;;;;;;;;5077456;28;20028;-47
2022/04/26 04:38:52;;;;;;;3.03;2.67;;;;;;;;;;5095399;28;20052;-49
2022/04/26 04:41:18;;;;;;;3.97;2.90;;;;;;;;;;5095260;28;20075;-52
2022/04/26 04:43:44;;;;;;;4.30;3.85;;;;;;;;;;5095057;28;20065;-47
2022/04/26 04:46:10;;;;;;;5.03;3.70;;;;;;;;;;5094970;28;20034;-47
2022/04/26 04:48:35;;;;;;;5.68;3.47;;;;;;;;;;5094849;28;20028;-52
2022/04/26 04:51:01;;;;;;;6.85;4.80;;;;;;;;;;5095231;28;20067;-54
2022/04/26 04:53:26;;;;;;;5.88;4.40;;;;;;;;;;5095182;28;20020;-50
2022/04/26 04:55:51;;;;;;;5.85;4.78;;;;;;;;;;5094852;28;20490;-47
2022/04/26 04:58:17;;;;;;;6.55;4.88;;;;;;;;;;5095015;28;20024;-46
2022/04/26 05:00:42;;;;;;;6.10;4.85;;;;;;;;;;5094633;28;20115;-43
2022/04/26 05:03:08;;;;;;;6.82;5.10;;;;;;;;;;5094920;28;20028;-44
2022/04/26 05:05:34;;;;;;;5.15;4.55;;;;;;;;;;5094564;28;20028;-47
2022/04/26 05:08:03;;;;;;;9.55;5.78;;;;;;;;;;5094895;28;20028;-43
2022/04/26 05:10:33;;;;;;;6.65;5.55;;;;;;;;;;5094714;28;20024;-45
2022/04/26 05:12:59;;;;;;;8.23;5.47;;;;;;;;;;5094623;28;20438;-42
2022/04/26 05:15:25;;;;;;;7.60;5.65;;;;;;;;;;5094267;28;20095;-49
2022/04/26 05:17:51;;;;;;;7.00;5.28;;;;;;;;;;5094356;28;20036;-46
2022/04/26 05:20:17;;;;;;;9.20;5.70;;;;;;;;;;5094633;28;20105;-50
2022/04/26 05:25:26;;;;;;;9.52;6.03;;;;;;;;;;5094259;28;20031;-50
2022/04/26 05:27:51;;;;;;;9.65;6.20;;;;;;;;;;5094366;28;20383;-52
2022/04/26 05:30:17;;;;;;;12.48;8.48;;;;;;;;;;5094447;28;20482;-47
2022/04/26 05:32:42;;;;;;;10.18;7.10;;;;;;;;;;5094327;28;20028;-46
2022/04/26 05:35:08;;;;;;;13.32;8.23;;;;;;;;;;5093994;28;20499;-41
2022/04/26 05:37:33;;;;;;;11.73;7.22;;;;;;;;;;5094051;28;20107;-52
2022/04/26 05:40:02;;;;;;;11.18;6.97;;;;;;;;;;5093937;28;20016;-51
2022/04/26 05:42:31;;;;;;;16.30;7.25;;;;;;;;;;5093698;28;20115;-47
2022/04/26 05:44:57;;;;;;;16.73;7.88;;;;;;;;;;5093841;28;20024;-47
2022/04/26 05:47:23;;;;;;;15.75;8.27;;;;;;;;;;5094068;28;20028;-44
2022/04/26 05:49:49;;;;;;;21.98;9.93;;;;;;;;;;5093664;28;20143;-41
2022/04/26 05:52:14;;;;;;;28.75;13.55;;;;;;;;;;5093636;28;20073;-47
2022/04/26 05:54:40;;;;;;;24.88;11.45;;;;;;;;;;5093659;28;20016;-46
2022/04/26 05:57:05;;;;;;;22.40;11.38;;;;;;;;;;5093617;28;20028;-47
2022/04/26 05:59:31;;;;;;;17.27;9.45;;;;;;;;;;5093798;28;20107;-45
2022/04/26 06:01:57;;;;;;;18.88;9.77;;;;;;;;;;5093710;28;20482;-46
2022/04/26 06:04:24;;;;;;;21.80;12.10;;;;;;;;;;5092819;28;20035;-46
2022/04/26 06:06:50;;;;;;;14.80;9.45;;;;;;;;;;5092335;28;20105;-51
2022/04/26 06:09:16;;;;;;;18.67;10.75;;;;;;;;;;5093412;28;20055;-42
2022/04/26 06:11:41;;;;;;;16.05;9.27;;;;;;;;;;5093599;28;20028;-43
2022/04/26 06:14:07;;;;;;;13.88;8.38;;;;;;;;;;5092334;28;20024;-46
2022/04/26 06:16:32;;;;;;;14.80;8.50;;;;;;;;;;5091946;28;20024;-43
2022/04/26 06:18:58;;;;;;;11.38;7.80;;;;;;;;;;5091669;28;20119;-43
2022/04/26 06:21:23;;;;;;;15.90;9.77;;;;;;;;;;5093295;28;20028;-50
2022/04/26 06:23:49;;;;;;;16.58;10.43;;;;;;;;;;5087179;28;20380;-47
2022/04/26 06:26:14;;;;;;;12.57;7.35;;;;;;;;;;5092921;28;20040;-47
2022/04/26 06:28:39;;;;;;;8.55;6.40;;;;;;;;;;5092914;28;20031;-42
2022/04/26 06:31:05;;;;;;;8.95;5.97;;;;;;;;;;5092815;28;20028;-51
2022/04/26 06:33:30;;;;;;;8.48;6.32;;;;;;;;;;5074232;28;20034;-46
2022/04/26 06:35:56;;;;;;;10.07;6.70;;;;;;;;;;5092917;28;20421;-43
2022/04/26 06:38:24;;;;;;;17.00;9.32;;;;;;;;;;5093165;28;20020;-43
2022/04/26 06:40:51;;;;;;;10.18;5.97;;;;;;;;;;5092969;28;20379;-46
2022/04/26 06:43:17;;;;;;;7.35;5.88;;;;;;;;;;5092755;28;20056;-47
2022/04/26 06:45:44;;;;;;;8.05;6.10;;;;;;;;;;5092745;28;20427;-42
2022/04/26 06:48:13;;;;;;;7.93;5.40;;;;;;;;;;5092921;28;20028;-51
2022/04/26 06:50:39;;;;;;;7.53;5.68;;;;;;;;;;5092431;28;20044;-49
2022/04/26 06:53:05;;;;;;;13.38;6.18;;;;;;;;;;5092839;28;20028;-49
2022/04/26 06:55:31;;;;;;;9.23;6.35;;;;;;;;;;5092885;28;20020;-46
2022/04/26 06:57:57;;;;;;;10.23;6.60;;;;;;;;;;5092423;28;20024;-49
2022/04/26 07:00:22;;;;;;;11.98;7.30;;;;;;;;;;5092435;28;20039;-46
2022/04/26 07:02:48;;;;;;;11.25;7.03;;;;;;;;;;5092478;28;20024;-45
2022/04/26 07:05:16;;;;;;;9.98;6.10;;;;;;;;;;5092712;28;20031;-46
2022/04/26 07:07:42;;;;;;;11.98;7.88;;;;;;;;;;5092432;28;20517;-42
2022/04/26 07:10:10;;;;;;;14.13;6.45;;;;;;;;;;5092659;28;20040;-41
2022/04/26 07:12:35;;;;;;;7.05;5.20;;;;;;;;;;5092609;28;20367;-43
2022/04/26 07:15:01;;;;;;;7.78;5.25;;;;;;;;;;5092430;28;20028;-40
2022/04/26 07:17:26;;;;;;;11.05;6.20;;;;;;;;;;5092409;28;20024;-45
2022/04/26 07:19:52;;;;;;;5.82;4.35;;;;;;;;;;5092324;28;20024;-44
2022/04/26 07:22:17;;;;;;;7.60;5.38;;;;;;;;;;5092603;28;20111;-43
2022/04/26 07:24:44;;;;;;;6.25;4.40;;;;;;;;;;5092124;28;20059;-42
2022/04/26 07:27:10;;;;;;;6.50;4.68;;;;;;;;;;5073582;28;20028;-44
2022/04/26 07:29:37;;;;;;;7.18;4.20;;;;;;;;;;5091026;28;20081;-47
2022/04/26 07:32:03;;;;;;;6.18;4.20;;;;;;;;;;5090648;28;20024;-49
2022/04/26 07:34:29;;;;;;;3.97;3.53;;;;;;;;;;5091263;28;20069;-46
2022/04/26 07:37:02;;;;;;;5.78;3.60;;;;;;;;;;5092102;28;20081;-43
2022/04/26 07:39:35;;;;;;;4.55;3.33;;;;;;;;;;5074783;28;20490;-46
2022/04/26 07:42:02;;;;;;;5.95;4.00;;;;;;;;;;5084761;28;20025;-41
2022/04/26 07:44:28;;;;;;;4.43;3.75;;;;;;;;;;5079980;28;20036;-43
2022/04/26 07:46:54;;;;;;;4.72;3.53;;;;;;;;;;5083660;28;20069;-47
2022/04/26 07:49:22;;;;;;;7.07;4.72;;;;;;;;;;5095184;28;20044;-48
2022/04/26 07:51:48;;;;;;;8.02;5.38;;;;;;;;;;5096155;28;20093;-44
2022/04/26 07:54:15;;;;;;;6.30;4.25;;;;;;;;;;5095877;28;20506;-49
2022/04/26 07:56:41;;;;;;;5.82;3.88;;;;;;;;;;5096156;28;20092;-44
2022/04/26 07:59:06;;;;;;;5.43;3.65;;;;;;;;;;5095947;28;20463;-49
2022/04/26 08:01:32;;;;;;;9.77;5.70;;;;;;;;;;5095303;28;20028;-49
2022/04/26 08:03:58;;;;;;;3.25;2.95;;;;;;;;;;5095703;28;20024;-49
2022/04/26 08:06:24;;;;;;;3.90;2.90;;;;;;;;;;5095726;28;20518;-46
2022/04/26 08:08:50;;;;;;;3.78;3.03;;;;;;;;;;5093994;28;20036;-52
2022/04/26 08:11:16;;;;;;;5.03;2.88;;;;;;;;;;5094270;28;20032;-52
2022/04/26 08:13:42;;;;;;;2.60;2.40;;;;;;;;;;5094263;28;20093;-47
2022/04/26 08:16:09;;;;;;;2.50;2.30;;;;;;;;;;5093927;28;20060;-47
2022/04/26 08:18:34;;;;;;;3.00;2.70;;;;;;;;;;5094003;28;20496;-46
2022/04/26 08:21:00;;;;;;;2.63;2.42;;;;;;;;;;5094105;28;20036;-46
2022/04/26 08:23:26;;;;;;;4.25;3.47;;;;;;;;;;5093792;28;20025;-41
2022/04/26 08:28:35;;;;;;;4.13;3.72;;;;;;;;;;5093847;28;20494;-42
2022/04/26 08:31:01;;;;;;;5.40;3.58;;;;;;;;;;5093674;28;20040;-48
2022/04/26 08:33:27;;;;;;;6.55;5.05;;;;;;;;;;5094021;28;20035;-42
2022/04/26 08:35:53;;;;;;;5.95;4.38;;;;;;;;;;5093903;28;20036;-43
2022/04/26 08:38:19;;;;;;;7.32;4.45;;;;;;;;;;5093575;28;20391;-46
2022/04/26 08:40:44;;;;;;;2.30;2.08;;;;;;;;;;5093867;28;20035;-43
2022/04/26 08:43:10;;;;;;;2.60;2.40;;;;;;;;;;5093770;28;20039;-41
2022/04/26 08:45:40;;;;;;;2.53;2.33;;;;;;;;;;5093692;28;20021;-42
2022/04/26 08:51:02;;;;;;;6.22;4.45;;;;;;;;;;5093676;28;20262;-41
2022/04/26 08:53:29;;;;;;;6.28;4.22;;;;;;;;;;5093344;28;20089;-44
2022/04/26 08:55:57;;;;;;;3.80;3.38;;;;;;;;;;5092750;28;20020;-42
2022/04/26 08:58:25;;;;;;;2.83;2.60;;;;;;;;;;5092950;28;20506;-39
2022/04/26 09:01:13;;;;;;;2.72;2.53;;;;;;;;;;5093097;28;20055;-48
2022/04/26 09:03:59;;;;;;;2.95;2.65;;;;;;;;;;5093142;28;20098;-43
2022/04/26 09:06:38;;;;;;;8.63;4.70;;;;;;;;;;5093054;28;20111;-43
2022/04/26 09:09:09;;;;;;;7.50;5.18;;;;;;;;;;5093139;28;20032;-42
2022/04/26 09:11:36;;;;;;;5.55;3.42;;;;;;;;;;5074733;28;20039;-49
2022/04/26 09:14:04;;;;;;;2.35;2.15;;;;;;;;;;5092702;28;20419;-42
2022/04/26 09:16:30;;;;;;;2.55;2.20;;;;;;;;;;5092797;28;20071;-48
2022/04/26 09:18:57;;;;;;;3.63;2.70;;;;;;;;;;5092969;28;20104;-42
2022/04/26 09:21:26;;;;;;;2.65;2.45;;;;;;;;;;5092827;28;20114;-40
2022/04/26 09:23:55;;;;;;;4.82;3.42;;;;;;;;;;5092450;28;20024;-49
2022/04/26 09:26:20;;;;;;;3.95;3.30;;;;;;;;;;5092544;28;20479;-52
2022/04/26 09:28:48;;;;;;;2.55;2.25;;;;;;;;;;5092410;28;20097;-44
2022/04/26 09:31:28;;;;;;;3.13;2.83;;;;;;;;;;5092460;28;20035;-47
2022/04/26 09:33:57;;;;;;;;;;;;;;;;;;5093106;28;20059;-50
2022/04/26 09:36:24;;;;;;;3.08;2.60;;;;;;;;;;5092468;28;19951;-48
2022/04/26 09:38:58;;;;;;;2.40;2.20;;;;;;;;;;5092721;28;20024;-51
2022/04/26 09:41:25;;;;;;;2.60;2.40;;;;;;;;;;5092142;28;20051;-47
2022/04/26 09:44:01;;;;;;;2.42;2.22;;;;;;;;;;5092290;28;20081;-49
2022/04/26 09:46:47;;;;;;;3.15;2.63;;;;;;;;;;5092518;28;20020;-48
2022/04/26 09:49:15;;;;;;;4.47;3.30;;;;;;;;;;5090568;28;20044;-49
2022/04/26 09:51:42;;;;;;;2.67;2.42;;;;;;;;;;5092404;28;20024;-52
2022/04/26 09:54:07;;;;;;;2.22;1.95;;;;;;;;;;5092192;28;20031;-51
2022/04/26 09:56:34;;;;;;;2.53;2.25;;;;;;;;;;5073844;28;20399;-54
2022/04/26 09:59:03;;;;;;;2.55;2.35;;;;;;;;;;5092081;28;20075;-49
2022/04/26 10:01:47;;;;;;;2.70;2.28;;;;;;;;;;5072750;28;20059;-48
2022/04/26 10:04:20;;;;;;;3.67;3.03;;;;;;;;;;5091836;28;20432;-44
2022/04/26 10:06:47;;;;;;;3.15;2.58;;;;;;;;;;5091899;28;20036;-48
2022/04/26 10:09:13;;;;;;;3.15;2.63;;;;;;;;;;5090783;28;20058;-46
2022/04/26 10:11:39;;;;;;;2.97;2.67;;;;;;;;;;5073412;28;20105;-44
2022/04/26 10:14:06;;;;;;;3.30;2.65;;;;;;;;;;5091977;28;20031;-49
2022/04/26 10:16:33;;;;;;;2.75;2.55;;;;;;;;;;5091999;28;20798;-45
2022/04/26 10:19:11;;;;;;;2.72;2.53;;;;;;;;;;5091803;28;20078;-44
2022/04/26 10:21:39;;;;;;;5.13;2.22;;;;;;;;;;5091505;28;20035;-47
2022/04/26 10:24:05;;;;;;;2.38;2.17;;;;;;;;;;5091783;28;20056;-49
2022/04/26 10:26:31;;;;;;;2.92;2.72;;;;;;;;;;5091456;28;20526;-41
2022/04/26 10:29:11;;;;;;;2.65;2.45;;;;;;;;;;5091610;28;20122;-49
2022/04/26 10:31:38;;;;;;;2.90;2.47;;;;;;;;;;5091580;28;20028;-40
2022/04/26 10:34:28;;;;;;;2.50;2.30;;;;;;;;;;5091639;28;20089;-46
2022/04/26 10:37:06;;;;;;;3.53;2.33;;;;;;;;;;5091203;28;20106;-44
2022/04/26 10:39:35;;;;;;;2.10;1.95;;;;;;;;;;5092250;28;20115;-43
2022/04/26 10:42:03;;;;;;;2.37;2.17;;;;;;;;;;5074958;28;20081;-47
2022/04/26 10:44:31;;;;;;;2.80;2.33;;;;;;;;;;5092755;28;20028;-43
2022/04/26 10:47:02;;;;;;;3.10;2.80;;;;;;;;;;5092602;28;20541;-47
2022/04/26 10:49:40;;;;;;;3.63;3.00;;;;;;;;;;5085685;28;20049;-45
2022/04/26 10:52:14;;;;;;;3.05;2.75;;;;;;;;;;5072383;28;20090;-49
2022/04/26 10:54:46;;;;;;;2.90;2.35;;;;;;;;;;5071385;28;20535;-42
2022/04/26 10:57:12;;;;;;;2.83;2.53;;;;;;;;;;5072163;28;20033;-46
2022/04/26 11:00:05;;;;;;;3.67;2.33;;;;;;;;;;5072469;28;20074;-45
2022/04/26 11:02:37;;;;;;;3.15;2.30;;;;;;;;;;5069727;28;20036;-40
2022/04/26 11:05:05;;;;;;;2.70;2.40;;;;;;;;;;5072344;28;20032;-41
2022/04/26 11:07:30;;;;;;;3.05;2.80;;;;;;;;;;5072351;28;20032;-44
2022/04/26 11:09:58;;;;;;;2.75;2.50;;;;;;;;;;5072440;28;20033;-52
2022/04/26 11:12:26;;;;;;;3.30;2.95;;;;;;;;;;5054146;28;20024;-51
2022/04/26 11:14:53;;;;;;;3.60;2.40;;;;;;;;;;5037811;28;20024;-45
2022/04/26 11:17:22;;;;;;;2.45;2.25;;;;;;;;;;5071240;28;20021;-48
2022/04/26 11:19:56;;;;;;;2.80;2.50;;;;;;;;;;5073636;28;20466;-46
2022/04/26 11:22:23;;;;;;;3.58;2.70;;;;;;;;;;5075634;28;20047;-46
2022/04/26 11:30:38;;;;;;;3.13;2.80;;;;;;;;;;5076049;28;20090;-50
2022/04/26 11:33:13;;;;;;;3.17;2.88;;;;;;;;;;5076146;28;20025;-43
2022/04/26 11:35:40;;;;;;;4.07;2.58;;;;;;;;;;5058168;28;20383;-42
2022/04/26 11:38:10;;;;;;;3.58;2.75;;;;;;;;;;5076029;28;20111;-46
2022/04/26 11:40:38;;;;;;;3.72;3.10;;;;;;;;;;5075825;28;20108;-45
2022/04/26 11:43:12;;;;;;;4.63;2.85;;;;;;;;;;5075866;28;20120;-45
2022/04/26 11:45:40;;;;;;;2.83;2.53;;;;;;;;;;5075939;28;20020;-48
2022/04/26 11:48:10;;;;;;;2.42;2.22;;;;;;;;;;5075895;28;20383;-45
2022/04/26 11:50:36;;;;;;;2.58;2.13;;;;;;;;;;5075547;28;20373;-48
2022/04/26 11:53:07;;;;;;;3.30;2.75;;;;;;;;;;5075588;28;20040;-51
2022/04/26 11:55:34;;;;;;;2.80;2.60;;;;;;;;;;5075683;28;20036;-46
2022/04/26 11:58:06;;;;;;;4.97;3.05;;;;;;;;;;5075530;28;20515;-48
2022/04/26 12:00:33;;;;;;;2.35;1.95;;;;;;;;;;5075750;28;20036;-46
2022/04/26 12:03:02;;;;;;;3.08;1.67;;;;;;;;;;5078284;28;20036;-47
2022/04/26 12:05:28;;;;;;;1.83;1.57;;;;;;;;;;5085121;28;20063;-47
2022/04/26 12:07:54;;;;;;;2.63;2.00;;;;;;;;;;5068233;28;20029;-48
2022/04/26 12:10:27;;;;;;;1.88;1.58;;;;;;;;;;5095414;28;20035;-46
2022/04/26 12:12:55;;;;;;;2.58;1.40;;;;;;;;;;5095555;28;20479;-41
2022/04/26 12:15:25;;;;;;;1.67;1.55;;;;;;;;;;5095492;28;20387;-50
2022/04/26 12:18:05;;;;;;;1.80;1.70;;;;;;;;;;5085404;28;20020;-45
2022/04/26 12:20:32;;;;;;;1.55;1.45;;;;;;;;;;5057496;28;20388;-44
2022/04/26 12:22:57;;;;;;;1.85;1.70;;;;;;;;;;5077767;28;20094;-41
2022/04/26 12:25:23;;;;;;;2.40;1.90;;;;;;;;;;5083217;28;20029;-45
2022/04/26 12:28:08;;;;;;;2.97;1.90;;;;;;;;;;5090065;28;20031;-44
2022/04/26 12:30:37;;;;;;;2.05;1.58;;;;;;;;;;5095073;28;20031;-49
2022/04/26 12:33:04;;;;;;;4.88;1.77;;;;;;;;;;5094656;28;20043;-45
2022/04/26 12:35:30;;;;;;;2.70;1.88;;;;;;;;;;5095549;28;20469;-42
2022/04/26 12:38:15;;;;;;;1.60;1.50;;;;;;;;;;5095463;28;20027;-47
2022/04/26 12:40:41;;;;;;;2.47;1.80;;;;;;;;;;5094608;28;20032;-44
2022/04/26 12:43:27;;;;;;;3.95;2.35;;;;;;;;;;5094945;28;20039;-45
2022/04/26 12:46:04;;;;;;;2.97;2.22;;;;;;;;;;5095308;28;20036;-41
2022/04/26 12:51:28;;;;;;;2.75;2.10;;;;;;;;;;5095232;28;20081;-42
2022/04/26 12:54:07;;;;;;;2.00;1.80;;;;;;;;;;5095093;28;20039;-44
2022/04/26 12:56:32;;;;;;;2.30;2.10;;;;;;;;;;5094797;28;20028;-43
2022/04/26 12:58:58;;;;;;;6.25;2.60;;;;;;;;;;5094735;28;20379;-44
2022/04/26 13:01:23;;;;;;;2.40;2.13;;;;;;;;;;5094721;28;20024;-43
2022/04/26 13:03:49;;;;;;;2.13;2.00;;;;;;;;;;5094667;28;20087;-41
2022/04/26 13:06:18;;;;;;;2.50;2.30;;;;;;;;;;5094673;28;20020;-46
2022/04/26 13:08:48;;;;;;;2.25;2.05;;;;;;;;;;5094423;28;20024;-43
2022/04/26 13:11:17;;;;;;;2.50;2.10;;;;;;;;;;5076481;28;20506;-48
2022/04/26 13:13:43;;;;;;;3.07;2.60;;;;;;;;;;5094179;28;20024;-45
2022/04/26 13:16:08;;;;;;;2.67;2.20;;;;;;;;;;5094236;28;20722;-48
2022/04/26 13:18:34;;;;;;;2.30;1.98;;;;;;;;;;5094301;28;20024;-47
2022/04/26 13:21:01;;;;;;;2.50;1.92;;;;;;;;;;5094184;28;20032;-49
2022/04/26 13:23:29;;;;;;;2.83;2.20;;;;;;;;;;5093418;28;20110;-48
2022/04/26 13:25:57;;;;;;;2.80;2.10;;;;;;;;;;5092879;28;20368;-51
2022/04/26 13:28:23;;;;;;;2.47;2.28;;;;;;;;;;5092482;28;20038;-45
2022/04/26 13:30:48;;;;;;;2.60;2.13;;;;;;;;;;5092619;28;20111;-48
2022/04/26 13:33:14;;;;;;;2.40;2.20;;;;;;;;;;5092495;28;20032;-47
2022/04/26 13:35:39;;;;;;;2.75;2.45;;;;;;;;;;5092133;28;20035;-47
2022/04/26 13:38:09;;;;;;;2.80;2.60;;;;;;;;;;5092681;28;20016;-47
2022/04/26 13:40:37;;;;;;;4.38;2.70;;;;;;;;;;5092296;28;20028;-42
2022/04/26 13:43:02;;;;;;;3.35;2.33;;;;;;;;;;5092351;28;20043;-48
2022/04/26 13:45:28;;;;;;;2.60;2.40;;;;;;;;;;5092516;28;20024;-42
2022/04/26 13:47:53;;;;;;;2.30;1.83;;;;;;;;;;5092381;28;20069;-46
2022/04/26 13:50:19;;;;;;;2.97;2.58;;;;;;;;;;5091902;28;20044;-47
2022/04/26 13:52:44;;;;;;;2.75;2.55;;;;;;;;;;5092120;28;20053;-42
2022/04/26 13:55:10;;;;;;;3.75;2.58;;;;;;;;;;5082843;28;20054;-41
2022/04/26 13:57:36;;;;;;;6.35;2.33;;;;;;;;;;5081170;28;20066;-44
2022/04/26 14:00:02;;;;;;;4.05;2.67;;;;;;;;;;5082283;28;20046;-40
2022/04/26 14:02:29;;;;;;;3.05;2.53;;;;;;;;;;5077164;28;20055;-43
2022/04/26 14:04:54;;;;;;;3.30;2.97;;;;;;;;;;5074334;28;20546;-43
2022/04/26 14:07:20;;;;;;;3.03;2.72;;;;;;;;;;5076932;28;20077;-49
2022/04/26 14:09:45;;;;;;;2.22;2.03;;;;;;;;;;5071352;28;20506;-46
2022/04/26 14:12:13;;;;;;;3.53;2.53;;;;;;;;;;5071797;28;20029;-45
2022/04/26 14:22:51;;;;;;;2.70;2.50;;;;;;;;;;5076235;28;20394;-48
2022/04/26 14:25:17;;;;;;;3.47;2.30;;;;;;;;;;5094966;28;20102;-50
2022/04/26 14:27:44;;;;;;;5.28;2.88;;;;;;;;;;5109825;28;20118;-48
2022/04/26 14:30:11;;;;;;;2.40;2.10;;;;;;;;;;5111486;28;20032;-46
2022/04/26 14:32:37;;;;;;;3.30;2.85;;;;;;;;;;5111472;28;20058;-49
2022/04/26 14:35:03;;;;;;;3.22;2.58;;;;;;;;;;5111627;28;20063;-42
2022/04/26 14:37:29;;;;;;;3.50;2.60;;;;;;;;;;5111918;28;20023;-49
2022/04/26 14:39:54;;;;;;;3.22;2.88;;;;;;;;;;5111730;28;20587;-44
2022/04/26 14:42:21;;;;;;;3.65;2.53;;;;;;;;;;5111714;28;20028;-47
2022/04/26 14:44:47;;;;;;;2.58;2.38;;;;;;;;;;5111452;28;20032;-47
2022/04/26 14:47:13;;;;;;;3.00;2.35;;;;;;;;;;5111425;28;20046;-47
2022/04/26 14:49:39;;;;;;;3.38;2.60;;;;;;;;;;5111286;28;20047;-47
2022/04/26 14:52:06;;;;;;;3.40;2.72;;;;;;;;;;5109803;28;20122;-51
2022/04/26 14:54:32;;;;;;;2.25;2.05;;;;;;;;;;5111272;28;20039;-52
2022/04/26 14:56:58;;;;;;;3.08;2.47;;;;;;;;;;5093560;28;20020;-50
2022/04/26 14:59:25;;;;;;;3.67;2.95;;;;;;;;;;5111624;28;20027;-48
2022/04/26 15:01:51;;;;;;;3.03;2.75;;;;;;;;;;5111646;28;20439;-49
2022/04/26 15:04:17;;;;;;;3.40;3.00;;;;;;;;;;5110358;28;20028;-47
2022/04/26 15:06:43;;;;;;;3.55;2.83;;;;;;;;;;5109925;28;20368;-49
2022/04/26 15:16:37;;;;;;;3.08;2.78;;;;;;;;;;5110559;28;20038;-42
2022/04/26 15:17:41;;;;;;;3.50;3.20;;;;;;;;;;5028160;28;20517;-44
2022/04/26 15:20:07;;;;;;;2.70;2.50;;;;;;;;;;5094088;28;20479;-42
2022/04/26 15:22:33;;;;;;;3.10;2.90;;;;;;;;;;5111176;28;20557;-41
2022/04/26 15:24:58;;;;;;;4.28;3.35;;;;;;;;;;5111427;28;20106;-49
2022/04/26 15:27:24;;;;;;;3.88;2.80;;;;;;;;;;5111226;28;20035;-48
2022/04/26 15:29:49;;;;;;;3.55;2.83;;;;;;;;;;5111153;28;20482;-45
2022/04/26 15:32:15;;;;;;;3.88;3.03;;;;;;;;;;5111358;28;20028;-48
2022/04/26 15:34:41;;;;;;;3.35;2.75;;;;;;;;;;5092823;28;20550;-49
2022/04/26 15:37:07;;;;;;;2.50;2.30;;;;;;;;;;5111327;28;20032;-47
2022/04/26 15:39:33;;;;;;;4.18;2.83;;;;;;;;;;5111111;28;20035;-47
2022/04/26 15:42:00;;;;;;;4.22;3.15;;;;;;;;;;5110866;28;20016;-47
2022/04/26 15:44:26;;;;;;;4.07;2.97;;;;;;;;;;5111377;28;20432;-49
2022/04/26 15:46:56;;;;;;;2.72;2.53;;;;;;;;;;5111152;28;20039;-46
2022/04/26 15:49:24;;;;;;;3.83;2.92;;;;;;;;;;5110963;28;20050;-46
2022/04/26 15:51:50;;;;;;;3.25;2.85;;;;;;;;;;5111159;28;20027;-49
2022/04/26 15:54:18;;;;;;;2.67;2.45;;;;;;;;;;5111227;28;20467;-44
2022/04/26 15:56:44;;;;;;;2.83;2.42;;;;;;;;;;5110965;28;20024;-46
2022/04/26 15:59:10;;;;;;;5.15;3.10;;;;;;;;;;5110882;28;20020;-47
2022/04/26 16:01:39;;;;;;;2.95;2.75;;;;;;;;;;5110443;28;20030;-47
2022/04/26 16:04:05;;;;;;;2.80;2.58;;;;;;;;;;5111088;28;20030;-46
2022/04/26 16:06:30;;;;;;;2.80;2.60;;;;;;;;;;5112005;28;20386;-47
2022/04/26 16:20:28;;;;;;;3.67;3.05;;;;;;;;;;5114584;28;20035;-46
2022/04/26 16:22:37;;;;;;;5.97;3.85;;;;;;;;;;5114514;28;20038;-50
2022/04/26 16:25:02;;;;;;;3.97;3.25;;;;;;;;;;5114376;28;20387;-41
2022/04/26 16:27:29;;;;;;;4.20;3.47;;;;;;;;;;5114569;28;20055;-41
2022/04/26 16:29:54;;;;;;;5.55;3.70;;;;;;;;;;5114281;28;20027;-49
2022/04/26 16:32:19;;;;;;;5.10;3.40;;;;;;;;;;5113030;28;20027;-46
2022/04/26 16:34:45;;;;;;;3.97;3.25;;;;;;;;;;5114539;28;20096;-49
2022/04/26 16:37:10;;;;;;;5.13;3.60;;;;;;;;;;5115675;28;20111;-46
2022/04/26 16:39:36;;;;;;;4.85;3.67;;;;;;;;;;5115587;28;20368;-49
2022/04/26 16:42:01;;;;;;;5.97;3.80;;;;;;;;;;5115695;28;20039;-47
2022/04/26 16:44:26;;;;;;;3.80;3.10;;;;;;;;;;5115479;28;20477;-46
2022/04/26 16:46:52;;;;;;;4.13;3.50;;;;;;;;;;5115801;28;20073;-43
2022/04/26 16:49:17;;;;;;;4.32;3.47;;;;;;;;;;5115053;28;20047;-43
2022/04/26 16:51:42;;;;;;;6.00;3.70;;;;;;;;;;5115286;28;20046;-40
2022/04/26 16:54:08;;;;;;;5.80;3.72;;;;;;;;;;5115333;28;20024;-39
2022/04/26 16:56:35;;;;;;;5.25;3.90;;;;;;;;;;5115579;28;20044;-40
2022/04/26 16:59:00;;;;;;;5.38;3.90;;;;;;;;;;5115238;28;20511;-41
2022/04/26 17:01:25;;;;;;;4.72;3.88;;;;;;;;;;5096859;28;20123;-45
2022/04/26 17:03:51;;;;;;;5.40;3.72;;;;;;;;;;5115373;28;20495;-46
2022/04/26 17:06:17;;;;;;;4.85;3.22;;;;;;;;;;5115440;28;20027;-51
2022/04/26 17:08:43;;;;;;;3.70;3.20;;;;;;;;;;5115286;28;20481;-49
2022/04/26 17:13:52;;;;;;;6.00;3.95;;;;;;;;;;5113731;28;20080;-46
2022/04/26 17:16:18;;;;;;;4.10;3.70;;;;;;;;;;5112639;28;20126;-49
2022/04/26 17:18:43;;;;;;;8.77;4.40;;;;;;;;;;5113396;28;20382;-48
2022/04/26 17:21:09;;;;;;;6.68;4.47;;;;;;;;;;5113050;28;20501;-47
2022/04/26 17:23:35;;;;;;;6.20;4.32;;;;;;;;;;5113183;28;20030;-49
2022/04/26 17:26:01;;;;;;;6.85;4.13;;;;;;;;;;5113007;28;20108;-48
2022/04/26 17:28:26;;;;;;;8.98;3.97;;;;;;;;;;5113248;28;20067;-47
2022/04/26 17:30:52;;;;;;;8.38;3.78;;;;;;;;;;5112800;28;20050;-39
2022/04/26 17:33:17;;;;;;;18.10;4.65;;;;;;;;;;5112781;28;20032;-39
2022/04/26 17:35:42;;;;;;;5.13;4.03;;;;;;;;;;5112849;28;20031;-40
2022/04/26 17:38:08;;;;;;;8.65;4.28;;;;;;;;;;5112991;28;20030;-40
2022/04/26 17:40:33;;;;;;;11.48;4.03;;;;;;;;;;5112650;28;20040;-39
2022/04/26 17:42:59;;;;;;;6.53;4.57;;;;;;;;;;5093117;28;20049;-41
2022/04/26 17:45:25;;;;;;;6.63;4.72;;;;;;;;;;5112893;28;20076;-42
2022/04/26 17:47:50;;;;;;;6.28;4.80;;;;;;;;;;5111988;28;20115;-40
2022/04/26 17:50:16;;;;;;;5.72;5.03;;;;;;;;;;5112509;28;20495;-40
2022/04/26 17:58:09;;;;;;;5.78;4.95;;;;;;;;;;5112592;28;20398;-40
2022/04/26 18:00:35;;;;;;;8.73;5.57;;;;;;;;;;5112683;28;20027;-47
2022/04/26 18:03:01;;;;;;;8.52;5.88;;;;;;;;;;5112264;28;20024;-46
2022/04/26 18:05:26;;;;;;;7.93;5.22;;;;;;;;;;5112442;28;20031;-50
2022/04/26 18:07:52;;;;;;;7.35;5.13;;;;;;;;;;5112175;28;20035;-48
2022/04/26 18:10:17;;;;;;;6.55;4.93;;;;;;;;;;5112363;28;20045;-47
2022/04/26 18:12:44;;;;;;;5.25;4.68;;;;;;;;;;5112208;28;20035;-49
2022/04/26 18:15:10;;;;;;;8.77;5.32;;;;;;;;;;5091081;28;20032;-53
2022/04/26 18:17:36;;;;;;;8.45;5.60;;;;;;;;;;5053444;28;20044;-48
2022/04/26 18:20:01;;;;;;;8.23;5.53;;;;;;;;;;5071681;28;20093;-50
2022/04/26 18:22:27;;;;;;;9.82;5.50;;;;;;;;;;5070825;28;20093;-47
2022/04/26 18:24:53;;;;;;;7.85;5.35;;;;;;;;;;5071033;28;20029;-45
2022/04/26 18:27:21;;;;;;;8.63;5.40;;;;;;;;;;5071342;28;20032;-44
2022/04/26 18:29:46;;;;;;;7.97;6.20;;;;;;;;;;5052406;28;20467;-44
2022/04/26 18:32:12;;;;;;;7.28;4.93;;;;;;;;;;5053142;28;20056;-44
2022/04/26 18:34:37;;;;;;;7.15;5.65;;;;;;;;;;5071184;28;20021;-46
2022/04/26 18:37:03;;;;;;;9.60;5.57;;;;;;;;;;5070798;28;20028;-51
2022/04/26 18:39:29;;;;;;;7.93;5.38;;;;;;;;;;5071322;28;20036;-47
2022/04/26 18:41:56;;;;;;;9.70;4.57;;;;;;;;;;5071320;28;20496;-48
2022/04/26 18:44:23;;;;;;;7.97;4.88;;;;;;;;;;5071041;28;20033;-45
2022/04/26 18:46:50;;;;;;;7.57;5.30;;;;;;;;;;5069710;28;20025;-49
2022/04/26 18:49:18;;;;;;;9.02;5.00;;;;;;;;;;5052847;28;20044;-50
2022/04/26 18:51:46;;;;;;;7.35;5.65;;;;;;;;;;5070584;28;20036;-40
2022/04/26 18:54:11;;;;;;;7.70;5.63;;;;;;;;;;5070866;28;20028;-50
2022/04/26 18:56:37;;;;;;;8.52;5.82;;;;;;;;;;5070871;28;20028;-50
2022/04/26 18:59:03;;;;;;;7.53;5.57;;;;;;;;;;5070989;28;20038;-47
2022/04/26 19:01:29;;;;;;;7.93;6.05;;;;;;;;;;5074096;28;20035;-50
2022/04/26 19:03:54;;;;;;;7.70;5.72;;;;;;;;;;5069319;28;20121;-48
2022/04/26 19:06:20;;;;;;;9.93;6.38;;;;;;;;;;5051527;28;20458;-46
2022/04/26 19:08:45;;;;;;;11.75;5.88;;;;;;;;;;5069631;28;20020;-49